createdAt,value
2023-01-31T00:00:30.386Z,4.3
2023-01-31T00:01:33.192Z,4.3
2023-01-31T00:02:30.594Z,4.34
2023-01-31T00:03:30.639Z,4.3
2023-01-31T00:04:30.380Z,4.3
2023-01-31T00:05:30.375Z,4.21
2023-01-31T00:06:30.382Z,4.22
2023-01-31T00:07:30.434Z,4.24
2023-01-31T00:08:30.394Z,4.21
2023-01-31T00:09:30.413Z,4.22
2023-01-31T00:10:30.427Z,4.16
2023-01-31T00:11:30.425Z,4.16
2023-01-31T00:12:33.147Z,4.14
2023-01-31T00:13:30.429Z,4.14
2023-01-31T00:14:30.447Z,4.24
2023-01-31T00:15:30.518Z,4.13
2023-01-31T00:16:30.442Z,4.2
2023-01-31T00:17:30.397Z,4.16
2023-01-31T00:18:30.418Z,4.21
2023-01-31T00:19:30.386Z,4.12
2023-01-31T00:20:30.447Z,4.22
2023-01-31T00:21:30.439Z,4.21
2023-01-31T00:22:30.415Z,4.13
2023-01-31T00:23:33.951Z,4.13
2023-01-31T00:24:30.422Z,4.22
2023-01-31T00:25:30.414Z,4.14
2023-01-31T00:26:30.629Z,4.12
2023-01-31T00:27:30.423Z,4.14
2023-01-31T00:28:30.441Z,4.13
2023-01-31T00:29:30.405Z,4.03
2023-01-31T00:30:30.472Z,4.13
2023-01-31T00:31:30.887Z,4.12
2023-01-31T00:32:30.471Z,4.06
2023-01-31T00:33:30.435Z,4.09
2023-01-31T00:34:33.237Z,3.94
2023-01-31T00:35:30.436Z,3.99
2023-01-31T00:36:30.441Z,4.07
2023-01-31T00:37:30.450Z,3.99
2023-01-31T00:38:30.452Z,4
2023-01-31T00:39:30.409Z,4.04
2023-01-31T00:40:30.493Z,4.03
2023-01-31T00:41:30.460Z,4.02
2023-01-31T00:42:30.557Z,4.07
2023-01-31T00:43:30.457Z,4.09
2023-01-31T00:44:30.442Z,4.13
2023-01-31T00:45:33.546Z,4.02
2023-01-31T00:46:30.738Z,4.07
2023-01-31T00:47:30.463Z,4.04
2023-01-31T00:48:30.484Z,4.09
2023-01-31T00:49:30.449Z,4.18
2023-01-31T00:50:30.462Z,4.1
2023-01-31T00:51:31.442Z,3.99
2023-01-31T00:52:30.541Z,4.1
2023-01-31T00:53:30.463Z,4.04
2023-01-31T00:54:30.474Z,4.06
2023-01-31T00:55:30.437Z,4.09
2023-01-31T00:56:33.807Z,4.07
2023-01-31T00:57:30.467Z,4.09
2023-01-31T00:58:30.542Z,4.07
2023-01-31T00:59:30.469Z,4.03
2023-01-31T01:00:30.588Z,4.04
2023-01-31T01:01:30.466Z,4.06
2023-01-31T01:02:30.520Z,4.02
2023-01-31T01:03:30.524Z,4.04
2023-01-31T01:04:30.476Z,3.99
2023-01-31T01:05:30.487Z,3.94
2023-01-31T01:06:30.482Z,4.06
2023-01-31T01:07:30.470Z,4
2023-01-31T01:08:30.502Z,4.16
2023-01-31T01:09:30.486Z,4.03
2023-01-31T01:10:30.492Z,4.14
2023-01-31T01:11:30.595Z,3.99
2023-01-31T01:12:33.223Z,4.04
2023-01-31T01:13:30.526Z,4.09
2023-01-31T01:14:30.549Z,4.14
2023-01-31T01:15:30.497Z,4.1
2023-01-31T01:16:30.751Z,4.09
2023-01-31T01:17:30.487Z,4
2023-01-31T01:18:30.576Z,4
2023-01-31T01:19:30.502Z,4.09
2023-01-31T01:20:31.091Z,4.06
2023-01-31T01:21:31.051Z,4.1
2023-01-31T01:22:30.863Z,4.02
2023-01-31T01:23:30.694Z,4.1
2023-01-31T01:24:30.619Z,4.06
2023-01-31T01:25:30.517Z,4.02
2023-01-31T01:26:30.965Z,4.06
2023-01-31T01:27:30.592Z,3.99
2023-01-31T01:28:34.253Z,4.12
2023-01-31T01:29:30.497Z,4.09
2023-01-31T01:30:31.037Z,4
2023-01-31T01:31:31.004Z,4.06
2023-01-31T01:32:30.882Z,4.14
2023-01-31T01:33:30.721Z,4
2023-01-31T01:34:30.648Z,4.09
2023-01-31T01:35:30.624Z,4.04
2023-01-31T01:36:30.532Z,3.95
2023-01-31T01:37:30.566Z,4.12
2023-01-31T01:38:30.535Z,4.02
2023-01-31T01:39:32.992Z,4.14
2023-01-31T01:40:31.071Z,4.02
2023-01-31T01:41:31.014Z,4
2023-01-31T01:42:30.926Z,4.06
2023-01-31T01:43:30.800Z,4.02
2023-01-31T01:44:30.768Z,4.07
2023-01-31T01:45:31.728Z,4.04
2023-01-31T01:46:30.680Z,4.12
2023-01-31T01:47:30.569Z,4.09
2023-01-31T01:48:30.560Z,3.91
2023-01-31T01:49:31.252Z,3.95
2023-01-31T01:50:34.114Z,4
2023-01-31T01:51:30.998Z,4.04
2023-01-31T01:52:30.887Z,3.99
2023-01-31T01:53:30.899Z,4.06
2023-01-31T01:54:31.560Z,4
2023-01-31T01:55:35.458Z,4.06
2023-01-31T01:56:30.641Z,3.99
2023-01-31T01:57:31.562Z,3.92
2023-01-31T01:58:31.488Z,3.84
2023-01-31T01:59:31.057Z,3.91
2023-01-31T02:00:31.102Z,3.96
2023-01-31T02:01:33.659Z,4.02
2023-01-31T02:02:31.569Z,3.91
2023-01-31T02:03:30.918Z,3.94
2023-01-31T02:04:30.554Z,3.86
2023-01-31T02:05:30.697Z,3.91
2023-01-31T02:06:34.065Z,3.92
2023-01-31T02:07:30.579Z,3.91
2023-01-31T02:08:31.181Z,3.96
2023-01-31T02:09:31.157Z,3.94
2023-01-31T02:10:31.016Z,4.03
2023-01-31T02:11:30.925Z,3.86
2023-01-31T02:12:34.025Z,4.02
2023-01-31T02:13:30.803Z,4.04
2023-01-31T02:14:30.575Z,3.96
2023-01-31T02:15:30.555Z,3.99
2023-01-31T02:16:30.864Z,4.07
2023-01-31T02:17:33.944Z,4.04
2023-01-31T02:18:31.346Z,3.89
2023-01-31T02:19:31.252Z,4.03
2023-01-31T02:20:31.392Z,4
2023-01-31T02:21:31.074Z,4
2023-01-31T02:22:30.907Z,4.07
2023-01-31T02:23:33.687Z,4.04
2023-01-31T02:24:30.629Z,4.09
2023-01-31T02:25:30.599Z,4.12
2023-01-31T02:26:30.717Z,4.22
2023-01-31T02:27:31.615Z,4.13
2023-01-31T02:28:33.573Z,4.16
2023-01-31T02:29:31.335Z,4.04
2023-01-31T02:30:31.073Z,4.18
2023-01-31T02:31:31.062Z,4.03
2023-01-31T02:32:30.754Z,4.12
2023-01-31T02:33:30.686Z,4.1
2023-01-31T02:34:30.614Z,4.14
2023-01-31T02:35:31.265Z,4.07
2023-01-31T02:36:30.641Z,4.2
2023-01-31T02:37:31.157Z,4.06
2023-01-31T02:38:31.191Z,4.12
2023-01-31T02:39:33.985Z,4.09
2023-01-31T02:40:31.227Z,4.09
2023-01-31T02:41:30.896Z,4.09
2023-01-31T02:42:30.848Z,4.07
2023-01-31T02:43:30.901Z,4.09
2023-01-31T02:44:30.643Z,4.04
2023-01-31T02:45:30.619Z,4.07
2023-01-31T02:46:30.652Z,4.09
2023-01-31T02:47:30.647Z,4.06
2023-01-31T02:48:31.193Z,4.12
2023-01-31T02:49:30.713Z,4.06
2023-01-31T02:50:33.414Z,4.02
2023-01-31T02:51:33.295Z,4.03
2023-01-31T02:52:30.671Z,3.96
2023-01-31T02:53:30.749Z,4
2023-01-31T02:54:30.692Z,3.94
2023-01-31T02:55:30.654Z,3.88
2023-01-31T02:56:30.674Z,3.95
2023-01-31T02:57:30.653Z,3.99
2023-01-31T02:58:30.661Z,3.89
2023-01-31T02:59:30.720Z,3.94
2023-01-31T03:00:30.681Z,3.94
2023-01-31T03:01:34.049Z,3.92
2023-01-31T03:02:30.737Z,3.94
2023-01-31T03:03:30.659Z,3.88
2023-01-31T03:04:30.691Z,3.94
2023-01-31T03:05:30.870Z,3.94
2023-01-31T03:06:30.676Z,3.91
2023-01-31T03:07:30.703Z,3.86
2023-01-31T03:08:30.674Z,3.85
2023-01-31T03:09:30.711Z,3.96
2023-01-31T03:10:30.689Z,3.85
2023-01-31T03:11:30.650Z,3.77
2023-01-31T03:12:33.436Z,3.88
2023-01-31T03:13:30.675Z,3.85
2023-01-31T03:14:30.694Z,3.86
2023-01-31T03:15:30.664Z,3.81
2023-01-31T03:16:30.762Z,3.99
2023-01-31T03:17:30.688Z,3.89
2023-01-31T03:18:30.676Z,3.77
2023-01-31T03:19:30.705Z,3.81
2023-01-31T03:20:30.692Z,3.81
2023-01-31T03:21:30.731Z,3.88
2023-01-31T03:22:30.691Z,3.84
2023-01-31T03:23:33.762Z,3.82
2023-01-31T03:24:30.727Z,3.77
2023-01-31T03:25:30.734Z,3.77
2023-01-31T03:26:30.885Z,3.82
2023-01-31T03:27:30.717Z,3.77
2023-01-31T03:28:30.732Z,3.82
2023-01-31T03:29:30.713Z,3.74
2023-01-31T03:30:30.708Z,3.76
2023-01-31T03:31:31.218Z,3.84
2023-01-31T03:32:30.710Z,3.84
2023-01-31T03:33:30.700Z,3.81
2023-01-31T03:34:30.721Z,3.74
2023-01-31T03:35:30.738Z,3.78
2023-01-31T03:36:30.704Z,3.77
2023-01-31T03:37:30.755Z,3.77
2023-01-31T03:38:30.733Z,3.78
2023-01-31T03:39:30.745Z,3.86
2023-01-31T03:40:30.708Z,3.81
2023-01-31T03:41:30.750Z,3.81
2023-01-31T03:42:30.756Z,3.85
2023-01-31T03:43:30.720Z,3.81
2023-01-31T03:44:30.786Z,3.78
2023-01-31T03:45:30.743Z,3.91
2023-01-31T03:46:30.849Z,3.82
2023-01-31T03:47:30.743Z,3.86
2023-01-31T03:48:30.710Z,3.81
2023-01-31T03:49:30.785Z,3.85
2023-01-31T03:50:30.762Z,3.88
2023-01-31T03:51:30.719Z,3.82
2023-01-31T03:52:30.740Z,3.85
2023-01-31T03:53:30.813Z,3.85
2023-01-31T03:54:30.748Z,3.94
2023-01-31T03:55:30.743Z,3.92
2023-01-31T03:56:30.758Z,3.85
2023-01-31T03:57:30.751Z,3.85
2023-01-31T03:58:30.983Z,3.88
2023-01-31T03:59:30.763Z,3.88
2023-01-31T04:00:30.743Z,3.84
2023-01-31T04:01:30.908Z,3.82
2023-01-31T04:02:30.857Z,3.82
2023-01-31T04:03:30.792Z,3.88
2023-01-31T04:04:30.780Z,3.81
2023-01-31T04:05:30.768Z,3.82
2023-01-31T04:06:30.914Z,3.96
2023-01-31T04:07:33.763Z,3.92
2023-01-31T04:08:30.752Z,3.86
2023-01-31T04:09:30.832Z,3.84
2023-01-31T04:10:30.779Z,3.81
2023-01-31T04:11:30.616Z,3.89
2023-01-31T04:12:30.767Z,3.85
2023-01-31T04:13:30.776Z,3.82
2023-01-31T04:14:30.811Z,3.88
2023-01-31T04:15:30.794Z,3.88
2023-01-31T04:16:30.808Z,3.89
2023-01-31T04:17:33.930Z,3.85
2023-01-31T04:18:30.788Z,3.95
2023-01-31T04:19:30.810Z,3.91
2023-01-31T04:20:30.794Z,3.78
2023-01-31T04:21:30.779Z,3.86
2023-01-31T04:22:30.836Z,3.84
2023-01-31T04:23:30.843Z,3.82
2023-01-31T04:24:34.410Z,3.88
2023-01-31T04:25:33.613Z,3.84
2023-01-31T04:26:30.935Z,3.76
2023-01-31T04:27:30.794Z,3.82
2023-01-31T04:28:33.840Z,3.91
2023-01-31T04:29:30.785Z,3.77
2023-01-31T04:30:30.830Z,3.76
2023-01-31T04:31:31.227Z,3.78
2023-01-31T04:32:30.832Z,3.86
2023-01-31T04:33:34.320Z,3.94
2023-01-31T04:34:30.810Z,3.91
2023-01-31T04:35:30.821Z,3.81
2023-01-31T04:36:30.687Z,3.82
2023-01-31T04:37:30.841Z,3.92
2023-01-31T04:38:30.827Z,3.88
2023-01-31T04:39:33.995Z,3.91
2023-01-31T04:40:30.877Z,3.85
2023-01-31T04:41:30.838Z,3.92
2023-01-31T04:42:30.847Z,3.84
2023-01-31T04:43:30.812Z,3.94
2023-01-31T04:44:34.194Z,3.85
2023-01-31T04:45:30.862Z,3.78
2023-01-31T04:46:31.054Z,3.82
2023-01-31T04:47:30.812Z,3.78
2023-01-31T04:48:32.977Z,3.95
2023-01-31T04:49:30.841Z,3.91
2023-01-31T04:50:33.895Z,3.91
2023-01-31T04:51:30.821Z,3.88
2023-01-31T04:52:30.847Z,3.95
2023-01-31T04:53:30.884Z,3.84
2023-01-31T04:54:30.846Z,3.85
2023-01-31T04:55:34.163Z,3.91
2023-01-31T04:56:30.822Z,3.99
2023-01-31T04:57:30.825Z,3.95
2023-01-31T04:58:30.849Z,3.96
2023-01-31T04:59:30.841Z,3.99
2023-01-31T05:00:30.890Z,3.92
2023-01-31T05:01:33.684Z,4.02
2023-01-31T05:02:30.962Z,4
2023-01-31T05:03:30.839Z,3.92
2023-01-31T05:04:30.906Z,3.95
2023-01-31T05:05:31.561Z,3.91
2023-01-31T05:06:33.899Z,3.89
2023-01-31T05:07:31.497Z,4.09
2023-01-31T05:08:33.826Z,3.95
2023-01-31T05:09:31.456Z,3.96
2023-01-31T05:10:31.448Z,4.14
2023-01-31T05:11:31.347Z,4.09
2023-01-31T05:12:31.594Z,4.16
2023-01-31T05:13:31.376Z,4.1
2023-01-31T05:14:31.374Z,4.13
2023-01-31T05:15:31.424Z,4.03
2023-01-31T05:16:31.536Z,4.06
2023-01-31T05:17:31.449Z,4.07
2023-01-31T05:18:31.366Z,4.06
2023-01-31T05:19:31.444Z,4.03
2023-01-31T05:20:31.358Z,4.1
2023-01-31T05:21:31.440Z,4.04
2023-01-31T05:22:31.308Z,4.14
2023-01-31T05:23:31.459Z,4.12
2023-01-31T05:24:31.371Z,4.2
2023-01-31T05:25:31.497Z,4.13
2023-01-31T05:26:31.482Z,4.16
2023-01-31T05:27:31.687Z,4.09
2023-01-31T05:28:36.149Z,4.13
2023-01-31T05:29:31.261Z,4.13
2023-01-31T05:30:31.467Z,4.12
2023-01-31T05:31:31.493Z,4.13
2023-01-31T05:32:31.353Z,4.14
2023-01-31T05:33:32.694Z,4.14
2023-01-31T05:34:31.258Z,4.12
2023-01-31T05:35:31.268Z,4.12
2023-01-31T05:36:31.208Z,4.12
2023-01-31T05:37:31.206Z,4.16
2023-01-31T05:38:31.330Z,4.03
2023-01-31T05:39:33.964Z,4.02
2023-01-31T05:40:31.198Z,4.06
2023-01-31T05:41:31.250Z,4.14
2023-01-31T05:42:31.195Z,3.99
2023-01-31T05:43:31.290Z,4.07
2023-01-31T05:44:32.174Z,4.06
2023-01-31T05:45:31.356Z,4.07
2023-01-31T05:46:31.118Z,3.89
2023-01-31T05:47:34.581Z,3.91
2023-01-31T05:48:31.104Z,3.95
2023-01-31T05:49:31.106Z,3.95
2023-01-31T05:50:34.562Z,4
2023-01-31T05:51:31.038Z,3.89
2023-01-31T05:52:31.042Z,3.89
2023-01-31T05:53:31.190Z,4
2023-01-31T05:54:31.360Z,4.02
2023-01-31T05:55:31.219Z,3.96
2023-01-31T05:56:31.005Z,4.07
2023-01-31T05:57:31.009Z,3.89
2023-01-31T05:58:30.981Z,3.96
2023-01-31T05:59:31.151Z,4.09
2023-01-31T06:00:31.061Z,4.07
2023-01-31T06:01:30.971Z,4.03
2023-01-31T06:02:31.248Z,4.02
2023-01-31T06:03:31.215Z,3.99
2023-01-31T06:04:31.026Z,4.13
2023-01-31T06:05:30.966Z,3.96
2023-01-31T06:06:30.963Z,4.04
2023-01-31T06:07:30.927Z,3.94
2023-01-31T06:08:30.978Z,3.95
2023-01-31T06:09:30.944Z,3.95
2023-01-31T06:10:30.967Z,4.03
2023-01-31T06:11:30.975Z,3.99
2023-01-31T06:12:30.959Z,4
2023-01-31T06:13:30.943Z,3.96
2023-01-31T06:14:30.964Z,4.09
2023-01-31T06:15:31.024Z,4.1
2023-01-31T06:16:31.167Z,4.04
2023-01-31T06:17:36.919Z,3.86
2023-01-31T06:18:30.944Z,4
2023-01-31T06:19:30.977Z,4.12
2023-01-31T06:20:31.167Z,3.88
2023-01-31T06:21:32.952Z,4.02
2023-01-31T06:22:31.031Z,4.07
2023-01-31T06:23:30.961Z,4.13
2023-01-31T06:24:30.970Z,4.02
2023-01-31T06:25:30.977Z,4.06
2023-01-31T06:26:31.057Z,4.03
2023-01-31T06:27:30.986Z,4.06
2023-01-31T06:28:30.992Z,4.12
2023-01-31T06:29:30.979Z,4.06
2023-01-31T06:30:32.040Z,4.09
2023-01-31T06:31:31.949Z,4.02
2023-01-31T06:32:31.023Z,3.99
2023-01-31T06:33:50.392Z,4.07
2023-01-31T06:34:31.006Z,3.96
2023-01-31T06:35:31.020Z,3.95
2023-01-31T06:36:31.028Z,3.99
2023-01-31T06:37:30.989Z,3.95
2023-01-31T06:38:31.028Z,4.04
2023-01-31T06:39:30.992Z,4.09
2023-01-31T06:40:30.991Z,4.04
2023-01-31T06:41:31.583Z,4.04
2023-01-31T06:42:31.577Z,4.07
2023-01-31T06:43:31.611Z,4.09
2023-01-31T06:44:35.208Z,4.02
2023-01-31T06:45:31.045Z,4.04
2023-01-31T06:46:31.602Z,4.12
2023-01-31T06:47:31.134Z,4.06
2023-01-31T06:48:31.658Z,3.85
2023-01-31T06:49:31.563Z,4.2
2023-01-31T06:50:31.562Z,4.06
2023-01-31T06:51:31.576Z,4.04
2023-01-31T06:52:30.886Z,4.13
2023-01-31T06:53:31.408Z,4.03
2023-01-31T06:54:31.544Z,4.06
2023-01-31T06:55:33.883Z,4.22
2023-01-31T06:56:31.492Z,4.12
2023-01-31T06:57:31.368Z,4.04
2023-01-31T06:58:31.415Z,4.03
2023-01-31T06:59:31.035Z,4.06
2023-01-31T07:00:34.203Z,4.04
2023-01-31T07:01:31.510Z,3.96
2023-01-31T07:02:31.346Z,4.07
2023-01-31T07:03:31.383Z,3.99
2023-01-31T07:04:31.428Z,4
2023-01-31T07:05:31.087Z,4.03
2023-01-31T07:06:34.168Z,3.95
2023-01-31T07:07:31.279Z,3.96
2023-01-31T07:08:33.191Z,3.96
2023-01-31T07:09:31.089Z,3.95
2023-01-31T07:10:31.303Z,3.89
2023-01-31T07:11:32.653Z,3.96
2023-01-31T07:12:31.390Z,3.96
2023-01-31T07:13:31.335Z,4.1
2023-01-31T07:14:31.449Z,3.96
2023-01-31T07:15:31.318Z,3.94
2023-01-31T07:16:31.306Z,4.1
2023-01-31T07:17:34.107Z,4.04
2023-01-31T07:18:31.382Z,4.13
2023-01-31T07:19:31.227Z,4.07
2023-01-31T07:20:31.436Z,3.99
2023-01-31T07:21:31.280Z,4.03
2023-01-31T07:22:34.658Z,4
2023-01-31T07:23:31.174Z,4.09
2023-01-31T07:24:31.192Z,3.96
2023-01-31T07:25:31.151Z,3.96
2023-01-31T07:26:31.242Z,4
2023-01-31T07:27:31.247Z,4.04
2023-01-31T07:28:34.156Z,4.03
2023-01-31T07:29:31.316Z,4.07
2023-01-31T07:30:31.276Z,4.12
2023-01-31T07:31:31.350Z,4.03
2023-01-31T07:32:31.191Z,4.06
2023-01-31T07:33:34.573Z,4.1
2023-01-31T07:34:31.262Z,4.03
2023-01-31T07:35:31.151Z,4.14
2023-01-31T07:36:31.190Z,4.13
2023-01-31T07:37:31.117Z,4.14
2023-01-31T07:38:31.136Z,4.1
2023-01-31T07:39:31.094Z,4.1
2023-01-31T07:40:31.119Z,4.25
2023-01-31T07:41:31.270Z,4.16
2023-01-31T07:42:31.120Z,4.18
2023-01-31T07:43:31.105Z,4.12
2023-01-31T07:44:34.459Z,4.13
2023-01-31T07:45:31.102Z,4.21
2023-01-31T07:46:31.348Z,4.13
2023-01-31T07:47:31.099Z,4.25
2023-01-31T07:48:31.106Z,4.18
2023-01-31T07:49:31.180Z,4.22
2023-01-31T07:50:31.157Z,4.18
2023-01-31T07:51:31.205Z,4.27
2023-01-31T07:52:31.129Z,4.36
2023-01-31T07:53:32.666Z,4.36
2023-01-31T07:54:31.156Z,4.34
2023-01-31T07:55:34.403Z,4.36
2023-01-31T07:56:31.146Z,4.31
2023-01-31T07:57:31.139Z,4.31
2023-01-31T07:58:31.158Z,4.36
2023-01-31T07:59:31.121Z,4.42
2023-01-31T08:00:31.154Z,4.4
2023-01-31T08:01:39.481Z,4.36
2023-01-31T08:02:31.118Z,4.32
2023-01-31T08:03:34.662Z,4.36
2023-01-31T08:04:32.122Z,4.31
2023-01-31T08:05:31.886Z,4.39
2023-01-31T08:06:33.220Z,4.39
2023-01-31T08:07:31.916Z,4.36
2023-01-31T08:08:31.897Z,4.34
2023-01-31T08:09:32.130Z,4.39
2023-01-31T08:10:31.860Z,4.18
2023-01-31T08:11:31.897Z,4.21
2023-01-31T08:12:31.821Z,4.22
2023-01-31T08:13:31.753Z,4.28
2023-01-31T08:14:31.700Z,4.27
2023-01-31T08:15:31.885Z,4.28
2023-01-31T08:16:31.775Z,4.2
2023-01-31T08:17:34.334Z,4.22
2023-01-31T08:18:31.875Z,4.27
2023-01-31T08:19:31.956Z,4.24
2023-01-31T08:20:31.780Z,4.24
2023-01-31T08:21:31.753Z,4.24
2023-01-31T08:22:31.773Z,4.13
2023-01-31T08:23:32.057Z,4.2
2023-01-31T08:24:31.776Z,4.09
2023-01-31T08:25:32.164Z,4.2
2023-01-31T08:26:31.849Z,4.25
2023-01-31T08:27:31.816Z,4.34
2023-01-31T08:28:31.890Z,4.3
2023-01-31T08:29:31.740Z,4.42
2023-01-31T08:30:32.755Z,4.42
2023-01-31T08:31:32.667Z,4.5
2023-01-31T08:32:31.768Z,4.5
2023-01-31T08:33:31.593Z,4.71
2023-01-31T08:34:31.604Z,4.7
2023-01-31T08:35:31.646Z,4.79
2023-01-31T08:36:32.151Z,4.79
2023-01-31T08:37:31.686Z,4.9
2023-01-31T08:38:31.699Z,4.75
2023-01-31T08:39:31.594Z,4.89
2023-01-31T08:40:31.454Z,5
2023-01-31T08:41:31.587Z,5.04
2023-01-31T08:42:31.625Z,4.92
2023-01-31T08:43:35.678Z,4.94
2023-01-31T08:44:31.459Z,4.95
2023-01-31T08:45:31.535Z,5.07
2023-01-31T08:46:31.664Z,4.84
2023-01-31T08:47:31.597Z,4.89
2023-01-31T08:48:32.593Z,4.78
2023-01-31T08:49:31.565Z,4.79
2023-01-31T08:50:33.048Z,4.83
2023-01-31T08:51:31.583Z,4.76
2023-01-31T08:52:31.351Z,4.87
2023-01-31T08:53:31.232Z,4.87
2023-01-31T08:54:31.407Z,4.76
2023-01-31T08:55:31.638Z,4.89
2023-01-31T08:56:31.460Z,4.82
2023-01-31T08:57:31.341Z,4.76
2023-01-31T08:58:31.341Z,4.84
2023-01-31T08:59:31.425Z,4.83
2023-01-31T09:00:34.749Z,4.87
2023-01-31T09:01:31.673Z,4.9
2023-01-31T09:02:31.380Z,4.94
2023-01-31T09:03:31.378Z,4.94
2023-01-31T09:04:31.316Z,4.9
2023-01-31T09:05:31.343Z,4.94
2023-01-31T09:06:31.505Z,4.84
2023-01-31T09:07:32.612Z,4.84
2023-01-31T09:08:31.297Z,4.87
2023-01-31T09:09:33.928Z,4.87
2023-01-31T09:10:31.462Z,4.9
2023-01-31T09:11:34.587Z,4.75
2023-01-31T09:12:31.323Z,4.78
2023-01-31T09:13:31.355Z,4.78
2023-01-31T09:14:31.330Z,4.76
2023-01-31T09:15:31.352Z,4.84
2023-01-31T09:16:31.573Z,4.86
2023-01-31T09:17:31.323Z,4.95
2023-01-31T09:18:31.308Z,4.97
2023-01-31T09:19:31.250Z,4.84
2023-01-31T09:20:31.278Z,5.01
2023-01-31T09:21:31.329Z,4.92
2023-01-31T09:22:34.726Z,4.89
2023-01-31T09:23:31.253Z,4.87
2023-01-31T09:24:31.255Z,4.84
2023-01-31T09:25:50.606Z,4.74
2023-01-31T09:26:32.314Z,4.79
2023-01-31T09:27:32.282Z,4.87
2023-01-31T09:28:31.258Z,4.67
2023-01-31T09:29:31.265Z,4.76
2023-01-31T09:30:31.404Z,4.83
2023-01-31T09:31:31.507Z,4.86
2023-01-31T09:32:31.307Z,4.9
2023-01-31T09:33:34.040Z,4.9
2023-01-31T09:34:31.316Z,4.95
2023-01-31T09:35:32.033Z,4.95
2023-01-31T09:36:31.279Z,4.98
2023-01-31T09:37:32.207Z,4.97
2023-01-31T09:38:34.365Z,4.95
2023-01-31T09:39:31.995Z,4.95
2023-01-31T09:40:32.037Z,5.05
2023-01-31T09:41:32.173Z,4.95
2023-01-31T09:42:32.068Z,5.05
2023-01-31T09:43:31.308Z,5.16
2023-01-31T09:44:34.772Z,5.19
2023-01-31T09:45:32.048Z,5.13
2023-01-31T09:46:32.109Z,5.2
2023-01-31T09:47:32.352Z,5.2
2023-01-31T09:48:31.863Z,5.16
2023-01-31T09:49:34.365Z,5.22
2023-01-31T09:50:32.053Z,5.23
2023-01-31T09:51:32.008Z,5.2
2023-01-31T09:52:32.007Z,5.29
2023-01-31T09:53:31.506Z,5.38
2023-01-31T09:54:32.036Z,5.31
2023-01-31T09:55:34.745Z,5.34
2023-01-31T09:56:31.833Z,5.29
2023-01-31T09:57:31.986Z,5.2
2023-01-31T09:58:32.072Z,5.29
2023-01-31T09:59:32.036Z,5.29
2023-01-31T10:00:35.152Z,5.31
2023-01-31T10:01:31.963Z,5.29
2023-01-31T10:02:32.060Z,5.49
2023-01-31T10:03:31.975Z,5.4
2023-01-31T10:04:31.776Z,5.41
2023-01-31T10:05:31.921Z,5.52
2023-01-31T10:06:31.749Z,5.29
2023-01-31T10:07:31.862Z,5.31
2023-01-31T10:08:31.852Z,5.38
2023-01-31T10:09:31.768Z,5.36
2023-01-31T10:10:31.313Z,5.54
2023-01-31T10:11:35.882Z,5.49
2023-01-31T10:12:31.709Z,5.54
2023-01-31T10:13:31.558Z,5.59
2023-01-31T10:14:31.798Z,5.54
2023-01-31T10:15:31.655Z,5.55
2023-01-31T10:16:31.719Z,5.55
2023-01-31T10:17:31.774Z,5.58
2023-01-31T10:18:31.572Z,5.51
2023-01-31T10:19:31.773Z,5.52
2023-01-31T10:20:31.603Z,5.62
2023-01-31T10:21:31.632Z,5.65
2023-01-31T10:22:34.925Z,5.67
2023-01-31T10:23:32.223Z,5.72
2023-01-31T10:24:31.738Z,5.76
2023-01-31T10:25:32.230Z,5.79
2023-01-31T10:26:32.529Z,5.87
2023-01-31T10:27:31.917Z,5.8
2023-01-31T10:28:31.720Z,5.9
2023-01-31T10:29:32.643Z,5.83
2023-01-31T10:30:32.081Z,5.87
2023-01-31T10:31:32.156Z,5.83
2023-01-31T10:32:31.943Z,6.05
2023-01-31T10:33:34.426Z,6.07
2023-01-31T10:34:31.826Z,6.1
2023-01-31T10:35:31.876Z,6.09
2023-01-31T10:36:31.681Z,6.17
2023-01-31T10:37:31.754Z,6.15
2023-01-31T10:38:31.495Z,6.1
2023-01-31T10:39:32.384Z,6.12
2023-01-31T10:40:31.661Z,6.1
2023-01-31T10:41:31.914Z,6.19
2023-01-31T10:42:31.486Z,6.13
2023-01-31T10:43:31.379Z,6.26
2023-01-31T10:44:34.888Z,6.19
2023-01-31T10:45:32.110Z,6.22
2023-01-31T10:46:31.398Z,6.19
2023-01-31T10:47:31.439Z,6.29
2023-01-31T10:48:31.450Z,6.31
2023-01-31T10:49:31.668Z,6.16
2023-01-31T10:50:31.443Z,6.2
2023-01-31T10:51:31.393Z,6.2
2023-01-31T10:52:31.426Z,6.19
2023-01-31T10:53:31.442Z,6.2
2023-01-31T10:54:31.380Z,6.13
2023-01-31T10:55:31.420Z,6.12
2023-01-31T10:56:31.407Z,6.09
2023-01-31T10:57:31.436Z,6.06
2023-01-31T10:58:31.405Z,5.91
2023-01-31T10:59:31.470Z,5.91
2023-01-31T11:00:31.427Z,5.87
2023-01-31T11:01:31.583Z,5.83
2023-01-31T11:02:31.684Z,5.88
2023-01-31T11:03:31.431Z,5.92
2023-01-31T11:04:31.434Z,5.77
2023-01-31T11:05:31.452Z,5.83
2023-01-31T11:06:31.458Z,5.81
2023-01-31T11:07:31.395Z,5.72
2023-01-31T11:08:31.414Z,5.83
2023-01-31T11:09:31.426Z,5.83
2023-01-31T11:10:31.444Z,5.62
2023-01-31T11:11:31.411Z,5.72
2023-01-31T11:12:31.415Z,5.67
2023-01-31T11:13:31.425Z,5.61
2023-01-31T11:14:31.455Z,5.69
2023-01-31T11:15:31.454Z,5.72
2023-01-31T11:16:31.662Z,5.73
2023-01-31T11:17:31.425Z,5.69
2023-01-31T11:18:31.447Z,5.67
2023-01-31T11:19:31.460Z,5.76
2023-01-31T11:20:31.574Z,5.8
2023-01-31T11:21:31.644Z,5.9
2023-01-31T11:22:31.445Z,5.81
2023-01-31T11:23:31.441Z,5.88
2023-01-31T11:24:33.647Z,6.06
2023-01-31T11:25:31.526Z,6.19
2023-01-31T11:26:31.583Z,6.2
2023-01-31T11:27:34.493Z,6.26
2023-01-31T11:28:31.449Z,6.25
2023-01-31T11:29:31.415Z,6.28
2023-01-31T11:30:31.679Z,6.34
2023-01-31T11:31:31.744Z,6.31
2023-01-31T11:32:31.495Z,6.65
2023-01-31T11:33:31.481Z,6.75
2023-01-31T11:34:31.453Z,6.74
2023-01-31T11:35:31.529Z,6.74
2023-01-31T11:36:31.565Z,6.8
2023-01-31T11:37:34.011Z,6.8
2023-01-31T11:38:34.490Z,6.82
2023-01-31T11:39:31.767Z,6.71
2023-01-31T11:40:31.477Z,6.54
2023-01-31T11:41:31.474Z,6.7
2023-01-31T11:42:31.503Z,6.49
2023-01-31T11:43:31.488Z,6.6
2023-01-31T11:44:31.446Z,6.59
2023-01-31T11:45:31.510Z,6.57
2023-01-31T11:46:31.641Z,6.46
2023-01-31T11:47:31.501Z,6.38
2023-01-31T11:48:31.549Z,6.34
2023-01-31T11:49:34.474Z,6.38
2023-01-31T11:50:32.860Z,6.36
2023-01-31T11:51:31.753Z,6.35
2023-01-31T11:52:31.676Z,6.57
2023-01-31T11:53:31.497Z,6.34
2023-01-31T11:54:31.523Z,6.19
2023-01-31T11:55:31.468Z,6.1
2023-01-31T11:56:31.500Z,6.1
2023-01-31T11:57:31.522Z,5.98
2023-01-31T11:58:31.528Z,5.99
2023-01-31T11:59:31.495Z,5.91
2023-01-31T12:00:34.425Z,5.79
2023-01-31T12:01:31.481Z,5.7
2023-01-31T12:02:31.892Z,5.79
2023-01-31T12:03:31.775Z,5.7
2023-01-31T12:04:31.571Z,5.61
2023-01-31T12:05:34.737Z,5.64
2023-01-31T12:06:31.491Z,5.4
2023-01-31T12:07:31.534Z,5.34
2023-01-31T12:08:33.701Z,5.37
2023-01-31T12:09:31.523Z,5.31
2023-01-31T12:10:31.503Z,5.37
2023-01-31T12:11:34.397Z,5.36
2023-01-31T12:12:31.523Z,5.34
2023-01-31T12:13:31.633Z,5.2
2023-01-31T12:14:31.597Z,5.16
2023-01-31T12:15:31.543Z,5.13
2023-01-31T12:16:34.761Z,5.2
2023-01-31T12:17:31.535Z,5.34
2023-01-31T12:18:33.343Z,5.26
2023-01-31T12:19:31.504Z,5.22
2023-01-31T12:20:33.763Z,5.23
2023-01-31T12:21:31.566Z,5.19
2023-01-31T12:22:34.272Z,5.19
2023-01-31T12:23:31.606Z,5.18
2023-01-31T12:24:31.524Z,5.31
2023-01-31T12:25:31.531Z,5.19
2023-01-31T12:26:31.709Z,5.25
2023-01-31T12:27:36.372Z,5.25
2023-01-31T12:28:31.596Z,5.26
2023-01-31T12:29:31.593Z,5.13
2023-01-31T12:30:31.854Z,5.2
2023-01-31T12:31:31.705Z,5.2
2023-01-31T12:32:31.551Z,5.22
2023-01-31T12:33:31.559Z,5.13
2023-01-31T12:34:31.636Z,5.22
2023-01-31T12:35:31.769Z,5.15
2023-01-31T12:36:31.576Z,5.13
2023-01-31T12:37:31.547Z,5.23
2023-01-31T12:38:35.361Z,5.22
2023-01-31T12:39:31.553Z,5.22
2023-01-31T12:40:34.128Z,5.18
2023-01-31T12:41:31.581Z,5.2
2023-01-31T12:42:31.564Z,5.1
2023-01-31T12:43:31.598Z,5.15
2023-01-31T12:44:31.583Z,5.19
2023-01-31T12:45:31.598Z,5.08
2023-01-31T12:46:31.871Z,5.26
2023-01-31T12:47:31.582Z,5.18
2023-01-31T12:48:31.594Z,5.18
2023-01-31T12:49:34.489Z,5.15
2023-01-31T12:50:31.585Z,5.2
2023-01-31T12:51:31.566Z,5.16
2023-01-31T12:52:31.601Z,5.23
2023-01-31T12:53:31.590Z,5.23
2023-01-31T12:54:31.622Z,5.23
2023-01-31T12:55:31.582Z,5.23
2023-01-31T12:56:31.602Z,5.19
2023-01-31T12:57:34.557Z,5.1
2023-01-31T12:58:31.752Z,5.19
2023-01-31T12:59:31.570Z,5.23
2023-01-31T13:00:34.729Z,5.26
2023-01-31T13:01:31.803Z,5.23
2023-01-31T13:02:31.744Z,5.18
2023-01-31T13:03:31.663Z,5.16
2023-01-31T13:04:31.603Z,5.15
2023-01-31T13:05:33.145Z,5.23
2023-01-31T13:06:31.595Z,5.26
2023-01-31T13:07:31.932Z,5.26
2023-01-31T13:08:31.628Z,5.22
2023-01-31T13:09:31.632Z,5.26
2023-01-31T13:10:31.620Z,5.23
2023-01-31T13:11:34.573Z,5.19
2023-01-31T13:12:31.617Z,5.19
2023-01-31T13:13:32.691Z,5.15
2023-01-31T13:14:31.659Z,5.1
2023-01-31T13:15:31.622Z,5.12
2023-01-31T13:16:31.659Z,5.22
2023-01-31T13:17:31.622Z,5.23
2023-01-31T13:18:31.625Z,5.2
2023-01-31T13:19:31.672Z,5.25
2023-01-31T13:20:31.659Z,5.13
2023-01-31T13:21:31.645Z,5.13
2023-01-31T13:22:31.635Z,5.15